sensor_id;sensor_type;location;lat;lon;timestamp;pressure;altitude;pressure_sealevel;temperature;humidity
12219;BME280;6172;42.646;23.344;2023-03-03T00:00:15;94673.09;;;1.57;100.00
12219;BME280;6172;42.646;23.344;2023-03-03T00:02:42;94662.09;;;1.43;100.00
12219;BME280;6172;42.646;23.344;2023-03-03T00:05:10;94665.38;;;1.56;100.00
12219;BME280;6172;42.646;23.344;2023-03-03T00:07:42;94672.59;;;1.52;100.00
12219;BME280;6172;42.646;23.344;2023-03-03T00:10:10;94664.53;;;1.52;100.00
12219;BME280;6172;42.646;23.344;2023-03-03T00:12:46;94664.59;;;1.55;100.00
12219;BME280;6172;42.646;23.344;2023-03-03T00:15:16;94669.56;;;1.53;100.00
12219;BME280;6172;42.646;23.344;2023-03-03T00:17:46;94663.56;;;1.41;100.00
12219;BME280;6172;42.646;23.344;2023-03-03T00:20:30;94658.75;;;1.50;100.00
12219;BME280;6172;42.646;23.344;2023-03-03T00:23:08;94662.50;;;1.45;100.00
12219;BME280;6172;42.646;23.344;2023-03-03T00:25:42;94653.72;;;1.48;100.00
12219;BME280;6172;42.646;23.344;2023-03-03T00:28:21;94665.31;;;1.52;100.00
12219;BME280;6172;42.646;23.344;2023-03-03T00:30:50;94663.47;;;1.56;100.00
12219;BME280;6172;42.646;23.344;2023-03-03T00:33:23;94661.63;;;1.60;100.00
12219;BME280;6172;42.646;23.344;2023-03-03T00:35:53;94663.41;;;1.53;100.00
12219;BME280;6172;42.646;23.344;2023-03-03T00:38:20;94658.81;;;1.53;100.00
12219;BME280;6172;42.646;23.344;2023-03-03T00:40:48;94660.78;;;1.56;100.00
12219;BME280;6172;42.646;23.344;2023-03-03T00:43:19;94643.53;;;1.57;100.00
12219;BME280;6172;42.646;23.344;2023-03-03T00:45:48;94648.47;;;1.55;100.00
12219;BME280;6172;42.646;23.344;2023-03-03T00:48:27;94646.34;;;1.64;100.00
12219;BME280;6172;42.646;23.344;2023-03-03T00:50:55;94645.41;;;1.53;100.00
12219;BME280;6172;42.646;23.344;2023-03-03T00:53:23;94636.13;;;1.51;100.00
12219;BME280;6172;42.646;23.344;2023-03-03T00:55:52;94631.59;;;1.55;100.00
12219;BME280;6172;42.646;23.344;2023-03-03T00:58:21;94623.78;;;1.46;100.00
12219;BME280;6172;42.646;23.344;2023-03-03T01:00:51;94612.66;;;1.48;100.00
12219;BME280;6172;42.646;23.344;2023-03-03T01:03:19;94624.25;;;1.52;100.00
12219;BME280;6172;42.646;23.344;2023-03-03T01:05:47;94608.56;;;1.54;100.00
12219;BME280;6172;42.646;23.344;2023-03-03T01:08:14;94610.28;;;1.43;100.00
12219;BME280;6172;42.646;23.344;2023-03-03T01:10:45;94614.03;;;1.61;100.00
12219;BME280;6172;42.646;23.344;2023-03-03T01:13:15;94622.22;;;1.45;100.00
12219;BME280;6172;42.646;23.344;2023-03-03T01:15:44;94610.22;;;1.39;100.00
12219;BME280;6172;42.646;23.344;2023-03-03T01:18:14;94602.03;;;1.32;100.00
12219;BME280;6172;42.646;23.344;2023-03-03T01:20:42;94613.88;;;1.50;100.00
12219;BME280;6172;42.646;23.344;2023-03-03T01:23:10;94613.16;;;1.53;100.00
12219;BME280;6172;42.646;23.344;2023-03-03T01:25:37;94607.38;;;1.51;100.00
12219;BME280;6172;42.646;23.344;2023-03-03T01:28:07;94616.25;;;1.55;100.00
12219;BME280;6172;42.646;23.344;2023-03-03T01:30:34;94609.97;;;1.48;100.00
12219;BME280;6172;42.646;23.344;2023-03-03T01:33:02;94601.22;;;1.51;100.00
12219;BME280;6172;42.646;23.344;2023-03-03T01:35:29;94608.50;;;1.50;100.00
12219;BME280;6172;42.646;23.344;2023-03-03T01:37:57;94604.91;;;1.43;100.00
12219;BME280;6172;42.646;23.344;2023-03-03T01:40:27;94605.19;;;1.38;100.00
12219;BME280;6172;42.646;23.344;2023-03-03T01:42:54;94592.28;;;1.43;100.00
12219;BME280;6172;42.646;23.344;2023-03-03T01:45:23;94600.84;;;1.52;100.00
12219;BME280;6172;42.646;23.344;2023-03-03T01:47:58;94591.50;;;1.43;100.00
12219;BME280;6172;42.646;23.344;2023-03-03T01:50:40;94603.03;;;1.43;100.00
12219;BME280;6172;42.646;23.344;2023-03-03T01:53:13;94599.66;;;1.50;100.00
12219;BME280;6172;42.646;23.344;2023-03-03T01:55:43;94593.81;;;1.44;100.00
12219;BME280;6172;42.646;23.344;2023-03-03T01:58:14;94597.41;;;1.52;100.00
12219;BME280;6172;42.646;23.344;2023-03-03T02:00:45;94598.88;;;1.49;100.00
12219;BME280;6172;42.646;23.344;2023-03-03T02:03:17;94599.31;;;1.51;100.00
12219;BME280;6172;42.646;23.344;2023-03-03T02:05:47;94597.44;;;1.55;100.00
12219;BME280;6172;42.646;23.344;2023-03-03T02:08:19;94593.53;;;1.72;100.00
12219;BME280;6172;42.646;23.344;2023-03-03T02:10:47;94600.78;;;1.71;100.00
12219;BME280;6172;42.646;23.344;2023-03-03T02:13:15;94601.00;;;1.85;100.00
12219;BME280;6172;42.646;23.344;2023-03-03T02:15:42;94594.78;;;1.78;100.00
12219;BME280;6172;42.646;23.344;2023-03-03T02:18:10;94596.34;;;1.82;100.00
12219;BME280;6172;42.646;23.344;2023-03-03T02:20:48;94595.63;;;1.85;100.00
12219;BME280;6172;42.646;23.344;2023-03-03T02:23:21;94594.75;;;1.55;100.00
12219;BME280;6172;42.646;23.344;2023-03-03T02:26:08;94587.91;;;1.58;100.00
12219;BME280;6172;42.646;23.344;2023-03-03T02:28:36;94595.78;;;1.70;100.00
12219;BME280;6172;42.646;23.344;2023-03-03T02:31:07;94597.22;;;1.64;100.00
12219;BME280;6172;42.646;23.344;2023-03-03T02:33:37;94595.13;;;1.76;100.00
12219;BME280;6172;42.646;23.344;2023-03-03T02:36:06;94590.00;;;1.45;100.00
12219;BME280;6172;42.646;23.344;2023-03-03T02:38:36;94594.13;;;1.62;100.00
12219;BME280;6172;42.646;23.344;2023-03-03T02:41:11;94596.97;;;1.72;100.00
12219;BME280;6172;42.646;23.344;2023-03-03T02:43:45;94600.50;;;1.76;100.00
12219;BME280;6172;42.646;23.344;2023-03-03T02:46:14;94596.34;;;1.56;100.00
12219;BME280;6172;42.646;23.344;2023-03-03T02:48:41;94594.38;;;1.53;100.00
12219;BME280;6172;42.646;23.344;2023-03-03T02:51:08;94594.28;;;1.50;100.00
12219;BME280;6172;42.646;23.344;2023-03-03T02:53:37;94598.22;;;1.78;100.00
12219;BME280;6172;42.646;23.344;2023-03-03T02:56:05;94592.72;;;1.71;100.00
12219;BME280;6172;42.646;23.344;2023-03-03T02:58:36;94586.72;;;1.78;100.00
12219;BME280;6172;42.646;23.344;2023-03-03T03:01:04;94592.16;;;1.59;100.00
12219;BME280;6172;42.646;23.344;2023-03-03T03:03:32;94584.63;;;1.45;100.00
12219;BME280;6172;42.646;23.344;2023-03-03T03:05:59;94589.63;;;1.69;100.00
12219;BME280;6172;42.646;23.344;2023-03-03T03:08:26;94580.50;;;1.51;100.00
12219;BME280;6172;42.646;23.344;2023-03-03T03:10:54;94584.25;;;1.69;100.00
12219;BME280;6172;42.646;23.344;2023-03-03T03:13:24;94588.56;;;1.51;100.00
12219;BME280;6172;42.646;23.344;2023-03-03T03:15:53;94597.41;;;1.52;100.00
12219;BME280;6172;42.646;23.344;2023-03-03T03:18:20;94592.44;;;1.54;100.00
12219;BME280;6172;42.646;23.344;2023-03-03T03:20:47;94584.16;;;1.40;100.00
12219;BME280;6172;42.646;23.344;2023-03-03T03:23:15;94587.38;;;1.49;100.00
12219;BME280;6172;42.646;23.344;2023-03-03T03:25:42;94585.59;;;1.56;100.00
12219;BME280;6172;42.646;23.344;2023-03-03T03:28:11;94585.81;;;1.70;100.00
12219;BME280;6172;42.646;23.344;2023-03-03T03:30:38;94587.13;;;1.57;100.00
12219;BME280;6172;42.646;23.344;2023-03-03T03:33:07;94589.47;;;1.59;100.00
12219;BME280;6172;42.646;23.344;2023-03-03T03:35:35;94586.88;;;1.66;100.00
12219;BME280;6172;42.646;23.344;2023-03-03T03:38:02;94583.28;;;1.81;100.00
12219;BME280;6172;42.646;23.344;2023-03-03T03:40:29;94576.50;;;1.64;100.00
12219;BME280;6172;42.646;23.344;2023-03-03T03:42:56;94577.34;;;1.68;100.00
12219;BME280;6172;42.646;23.344;2023-03-03T03:45:23;94577.03;;;1.73;100.00
12219;BME280;6172;42.646;23.344;2023-03-03T03:47:50;94571.63;;;1.47;100.00
12219;BME280;6172;42.646;23.344;2023-03-03T03:50:19;94575.25;;;1.58;100.00
12219;BME280;6172;42.646;23.344;2023-03-03T03:52:46;94575.06;;;1.48;100.00
12219;BME280;6172;42.646;23.344;2023-03-03T03:55:13;94569.59;;;1.63;100.00
12219;BME280;6172;42.646;23.344;2023-03-03T03:57:40;94564.88;;;1.57;100.00
12219;BME280;6172;42.646;23.344;2023-03-03T04:00:09;94568.16;;;1.47;100.00
12219;BME280;6172;42.646;23.344;2023-03-03T04:02:36;94576.28;;;1.50;100.00
12219;BME280;6172;42.646;23.344;2023-03-03T04:05:04;94564.88;;;1.57;100.00
12219;BME280;6172;42.646;23.344;2023-03-03T04:07:34;94569.66;;;1.44;100.00
12219;BME280;6172;42.646;23.344;2023-03-03T04:10:02;94567.50;;;1.53;100.00
12219;BME280;6172;42.646;23.344;2023-03-03T04:12:28;94567.91;;;1.55;100.00
12219;BME280;6172;42.646;23.344;2023-03-03T04:15:00;94565.88;;;1.26;100.00
12219;BME280;6172;42.646;23.344;2023-03-03T04:17:27;94566.03;;;1.33;100.00
12219;BME280;6172;42.646;23.344;2023-03-03T04:19:54;94563.94;;;1.46;100.00
12219;BME280;6172;42.646;23.344;2023-03-03T04:22:20;94569.16;;;1.61;100.00
12219;BME280;6172;42.646;23.344;2023-03-03T04:24:49;94569.41;;;1.53;100.00
12219;BME280;6172;42.646;23.344;2023-03-03T04:27:15;94565.66;;;1.57;100.00
12219;BME280;6172;42.646;23.344;2023-03-03T04:29:42;94561.78;;;1.55;100.00
12219;BME280;6172;42.646;23.344;2023-03-03T04:32:09;94565.19;;;1.52;100.00
12219;BME280;6172;42.646;23.344;2023-03-03T04:34:36;94550.03;;;1.40;100.00
12219;BME280;6172;42.646;23.344;2023-03-03T04:37:03;94571.63;;;1.47;100.00
12219;BME280;6172;42.646;23.344;2023-03-03T04:39:30;94570.34;;;1.64;100.00
12219;BME280;6172;42.646;23.344;2023-03-03T04:41:58;94560.06;;;1.43;100.00
12219;BME280;6172;42.646;23.344;2023-03-03T04:44:25;94561.75;;;1.32;100.00
12219;BME280;6172;42.646;23.344;2023-03-03T04:46:52;94563.13;;;1.45;100.00
12219;BME280;6172;42.646;23.344;2023-03-03T04:49:19;94560.03;;;1.66;100.00
12219;BME280;6172;42.646;23.344;2023-03-03T04:51:47;94562.00;;;1.69;100.00
12219;BME280;6172;42.646;23.344;2023-03-03T04:54:14;94562.66;;;1.62;100.00
12219;BME280;6172;42.646;23.344;2023-03-03T04:56:44;94562.91;;;1.31;100.00
12219;BME280;6172;42.646;23.344;2023-03-03T04:59:14;94567.44;;;1.27;100.00
12219;BME280;6172;42.646;23.344;2023-03-03T05:01:43;94566.72;;;1.53;100.00
12219;BME280;6172;42.646;23.344;2023-03-03T05:04:11;94564.75;;;1.50;100.00
12219;BME280;6172;42.646;23.344;2023-03-03T05:06:38;94573.41;;;1.62;100.00
12219;BME280;6172;42.646;23.344;2023-03-03T05:09:09;94576.19;;;1.69;100.00
12219;BME280;6172;42.646;23.344;2023-03-03T05:11:38;94571.91;;;1.65;100.00
12219;BME280;6172;42.646;23.344;2023-03-03T05:14:07;94581.69;;;1.54;100.00
12219;BME280;6172;42.646;23.344;2023-03-03T05:16:36;94581.88;;;1.64;100.00
12219;BME280;6172;42.646;23.344;2023-03-03T05:19:04;94580.44;;;1.70;100.00
12219;BME280;6172;42.646;23.344;2023-03-03T05:21:32;94579.72;;;1.73;100.00
12219;BME280;6172;42.646;23.344;2023-03-03T05:24:00;94583.19;;;1.51;100.00
12219;BME280;6172;42.646;23.344;2023-03-03T05:26:28;94583.00;;;1.41;100.00
12219;BME280;6172;42.646;23.344;2023-03-03T05:28:59;94585.00;;;1.66;100.00
12219;BME280;6172;42.646;23.344;2023-03-03T05:31:29;94583.13;;;1.48;100.00
12219;BME280;6172;42.646;23.344;2023-03-03T05:34:04;94592.31;;;1.69;100.00
12219;BME280;6172;42.646;23.344;2023-03-03T05:36:33;94589.00;;;1.53;100.00
12219;BME280;6172;42.646;23.344;2023-03-03T05:39:09;94585.34;;;1.42;100.00
12219;BME280;6172;42.646;23.344;2023-03-03T05:41:37;94581.47;;;1.40;100.00
12219;BME280;6172;42.646;23.344;2023-03-03T05:44:08;94591.50;;;1.43;100.00
12219;BME280;6172;42.646;23.344;2023-03-03T05:46:38;94595.59;;;1.59;100.00
12219;BME280;6172;42.646;23.344;2023-03-03T05:49:07;94595.56;;;1.56;100.00
12219;BME280;6172;42.646;23.344;2023-03-03T05:51:37;94592.28;;;1.43;100.00
12219;BME280;6172;42.646;23.344;2023-03-03T05:54:07;94598.13;;;1.49;100.00
12219;BME280;6172;42.646;23.344;2023-03-03T05:56:47;94593.59;;;1.30;100.00
12219;BME280;6172;42.646;23.344;2023-03-03T05:59:15;94601.41;;;1.39;100.00
12219;BME280;6172;42.646;23.344;2023-03-03T06:01:43;94583.00;;;1.41;100.00
12219;BME280;6172;42.646;23.344;2023-03-03T06:04:12;94592.91;;;1.37;100.00
12219;BME280;6172;42.646;23.344;2023-03-03T06:06:39;94599.00;;;1.34;100.00
12219;BME280;6172;42.646;23.344;2023-03-03T06:09:08;94587.63;;;1.40;100.00
12219;BME280;6172;42.646;23.344;2023-03-03T06:11:36;94587.91;;;1.58;100.00
12219;BME280;6172;42.646;23.344;2023-03-03T06:14:04;94589.88;;;1.61;100.00
12219;BME280;6172;42.646;23.344;2023-03-03T06:16:30;94600.63;;;1.83;100.00
12219;BME280;6172;42.646;23.344;2023-03-03T06:18:57;94602.63;;;1.90;100.00
12219;BME280;6172;42.646;23.344;2023-03-03T06:21:27;94608.06;;;1.93;100.00
12219;BME280;6172;42.646;23.344;2023-03-03T06:23:54;94611.88;;;1.92;100.00
12219;BME280;6172;42.646;23.344;2023-03-03T06:26:21;94606.84;;;1.91;100.00
12219;BME280;6172;42.646;23.344;2023-03-03T06:28:48;94605.47;;;2.00;100.00
12219;BME280;6172;42.646;23.344;2023-03-03T06:31:18;94603.63;;;2.04;100.00
12219;BME280;6172;42.646;23.344;2023-03-03T06:33:46;94604.88;;;2.10;100.00
12219;BME280;6172;42.646;23.344;2023-03-03T06:36:13;94604.69;;;2.00;100.00
12219;BME280;6172;42.646;23.344;2023-03-03T06:38:42;94607.19;;;2.12;100.00
12219;BME280;6172;42.646;23.344;2023-03-03T06:41:09;94604.56;;;1.89;100.00
12219;BME280;6172;42.646;23.344;2023-03-03T06:43:37;94598.19;;;1.75;100.00
12219;BME280;6172;42.646;23.344;2023-03-03T06:46:05;94609.84;;;1.86;100.00
12219;BME280;6172;42.646;23.344;2023-03-03T06:48:32;94598.13;;;1.97;100.00
12219;BME280;6172;42.646;23.344;2023-03-03T06:51:01;94602.44;;;2.02;100.00
12219;BME280;6172;42.646;23.344;2023-03-03T06:53:30;94604.59;;;1.93;100.00
12219;BME280;6172;42.646;23.344;2023-03-03T06:56:01;94608.47;;;1.95;100.00
12219;BME280;6172;42.646;23.344;2023-03-03T06:58:28;94606.72;;;2.06;100.00
12219;BME280;6172;42.646;23.344;2023-03-03T07:00:57;94612.28;;;1.94;100.00
12219;BME280;6172;42.646;23.344;2023-03-03T07:03:25;94611.22;;;1.99;100.00
12219;BME280;6172;42.646;23.344;2023-03-03T07:05:54;94609.28;;;2.25;100.00
12219;BME280;6172;42.646;23.344;2023-03-03T07:08:22;94609.16;;;2.41;100.00
12219;BME280;6172;42.646;23.344;2023-03-03T07:10:51;94604.53;;;2.41;100.00
12219;BME280;6172;42.646;23.344;2023-03-03T07:13:22;94610.31;;;2.69;100.00
12219;BME280;6172;42.646;23.344;2023-03-03T07:15:51;94598.63;;;2.91;100.00
12219;BME280;6172;42.646;23.344;2023-03-03T07:18:30;94605.78;;;2.77;100.00
12219;BME280;6172;42.646;23.344;2023-03-03T07:21:10;94598.47;;;2.77;100.00
12219;BME280;6172;42.646;23.344;2023-03-03T07:23:41;94603.06;;;2.44;100.00
12219;BME280;6172;42.646;23.344;2023-03-03T07:26:11;94602.81;;;2.56;100.00
12219;BME280;6172;42.646;23.344;2023-03-03T07:28:45;94604.59;;;2.45;100.00
12219;BME280;6172;42.646;23.344;2023-03-03T07:31:25;94596.69;;;2.29;100.00
12219;BME280;6172;42.646;23.344;2023-03-03T07:33:54;94603.31;;;2.65;100.00
12219;BME280;6172;42.646;23.344;2023-03-03T07:36:26;94599.66;;;2.50;100.00
12219;BME280;6172;42.646;23.344;2023-03-03T07:41:35;94593.94;;;2.52;100.00
12219;BME280;6172;42.646;23.344;2023-03-03T07:44:14;94588.59;;;2.55;100.00
12219;BME280;6172;42.646;23.344;2023-03-03T07:46:45;94589.34;;;2.85;100.00
12219;BME280;6172;42.646;23.344;2023-03-03T07:49:20;94588.34;;;2.67;100.00
12219;BME280;6172;42.646;23.344;2023-03-03T07:51:52;94588.06;;;2.76;100.00
12219;BME280;6172;42.646;23.344;2023-03-03T07:54:29;94592.59;;;2.68;100.00
12219;BME280;6172;42.646;23.344;2023-03-03T07:57:10;94582.94;;;2.64;100.00
12219;BME280;6172;42.646;23.344;2023-03-03T07:59:45;94589.53;;;2.70;100.00
12219;BME280;6172;42.646;23.344;2023-03-03T08:02:33;94580.97;;;2.61;100.00
12219;BME280;6172;42.646;23.344;2023-03-03T08:05:27;94587.19;;;2.65;100.00
12219;BME280;6172;42.646;23.344;2023-03-03T08:07:57;94578.09;;;2.76;100.00
12219;BME280;6172;42.646;23.344;2023-03-03T08:10:35;94576.81;;;3.00;100.00
12219;BME280;6172;42.646;23.344;2023-03-03T08:13:12;94571.59;;;3.14;100.00
12219;BME280;6172;42.646;23.344;2023-03-03T08:15:44;94578.72;;;3.33;100.00
12219;BME280;6172;42.646;23.344;2023-03-03T08:18:24;94562.31;;;3.11;100.00
12219;BME280;6172;42.646;23.344;2023-03-03T08:20:56;94574.44;;;3.28;100.00
12219;BME280;6172;42.646;23.344;2023-03-03T08:23:24;94574.19;;;3.40;100.00
12219;BME280;6172;42.646;23.344;2023-03-03T08:25:53;94562.38;;;3.15;100.00
12219;BME280;6172;42.646;23.344;2023-03-03T08:28:23;94565.94;;;3.26;100.00
12219;BME280;6172;42.646;23.344;2023-03-03T08:30:52;94568.13;;;3.13;100.00
12219;BME280;6172;42.646;23.344;2023-03-03T08:33:20;94565.59;;;2.91;100.00
12219;BME280;6172;42.646;23.344;2023-03-03T08:35:48;94564.13;;;2.67;100.00
12219;BME280;6172;42.646;23.344;2023-03-03T08:38:17;94566.81;;;2.64;100.00
12219;BME280;6172;42.646;23.344;2023-03-03T08:40:45;94564.06;;;2.93;100.00
12219;BME280;6172;42.646;23.344;2023-03-03T08:43:12;94563.81;;;3.05;100.00
12219;BME280;6172;42.646;23.344;2023-03-03T08:45:42;94561.28;;;2.86;100.00
12219;BME280;6172;42.646;23.344;2023-03-03T08:48:12;94566.16;;;3.10;100.00
12219;BME280;6172;42.646;23.344;2023-03-03T08:50:39;94568.63;;;3.22;100.00
12219;BME280;6172;42.646;23.344;2023-03-03T08:53:07;94572.53;;;3.28;100.00
12219;BME280;6172;42.646;23.344;2023-03-03T08:55:35;94566.97;;;3.51;100.00
12219;BME280;6172;42.646;23.344;2023-03-03T08:58:02;94571.84;;;3.39;100.00
12219;BME280;6172;42.646;23.344;2023-03-03T09:00:30;94563.41;;;3.44;100.00
12219;BME280;6172;42.646;23.344;2023-03-03T09:02:57;94559.25;;;3.50;100.00
12219;BME280;6172;42.646;23.344;2023-03-03T09:05:26;94564.75;;;3.23;100.00
12219;BME280;6172;42.646;23.344;2023-03-03T09:07:54;94558.38;;;3.02;100.00
12219;BME280;6172;42.646;23.344;2023-03-03T09:10:23;94569.66;;;3.14;100.00
12219;BME280;6172;42.646;23.344;2023-03-03T09:12:52;94560.28;;;2.98;100.00
12219;BME280;6172;42.646;23.344;2023-03-03T09:15:24;94572.03;;;3.19;100.00
12219;BME280;6172;42.646;23.344;2023-03-03T09:17:52;94560.84;;;3.17;100.00
12219;BME280;6172;42.646;23.344;2023-03-03T09:20:29;94564.06;;;3.30;100.00
12219;BME280;6172;42.646;23.344;2023-03-03T09:22:58;94567.25;;;3.43;100.00
12219;BME280;6172;42.646;23.344;2023-03-03T09:25:31;94556.44;;;3.39;100.00
12219;BME280;6172;42.646;23.344;2023-03-03T09:27:59;94565.06;;;3.55;100.00
12219;BME280;6172;42.646;23.344;2023-03-03T09:30:35;94561.31;;;3.67;100.00
12219;BME280;6172;42.646;23.344;2023-03-03T09:33:23;94559.09;;;3.79;100.00
12219;BME280;6172;42.646;23.344;2023-03-03T09:35:55;94559.84;;;3.73;100.00
12219;BME280;6172;42.646;23.344;2023-03-03T09:38:28;94549.16;;;3.87;100.00
12219;BME280;6172;42.646;23.344;2023-03-03T09:44:29;94554.13;;;3.81;100.00
12219;BME280;6172;42.646;23.344;2023-03-03T09:47:12;94554.63;;;4.01;100.00
12219;BME280;6172;42.646;23.344;2023-03-03T09:49:54;94558.78;;;3.88;100.00
12219;BME280;6172;42.646;23.344;2023-03-03T09:52:36;94561.56;;;3.95;100.00
12219;BME280;6172;42.646;23.344;2023-03-03T09:55:28;94552.94;;;3.79;100.00
12219;BME280;6172;42.646;23.344;2023-03-03T09:58:12;94552.84;;;3.65;100.00
12219;BME280;6172;42.646;23.344;2023-03-03T10:00:52;94557.03;;;3.59;100.00
12219;BME280;6172;42.646;23.344;2023-03-03T10:03:50;94545.97;;;3.74;100.00
12219;BME280;6172;42.646;23.344;2023-03-03T10:06:24;94548.41;;;3.90;100.00
12219;BME280;6172;42.646;23.344;2023-03-03T10:09:06;94551.16;;;3.97;100.00
12219;BME280;6172;42.646;23.344;2023-03-03T10:11:39;94544.38;;;4.17;100.00
12219;BME280;6172;42.646;23.344;2023-03-03T10:14:21;94545.38;;;3.98;100.00
12219;BME280;6172;42.646;23.344;2023-03-03T10:17:01;94541.94;;;4.01;100.00
12219;BME280;6172;42.646;23.344;2023-03-03T10:19:39;94539.63;;;4.00;100.00
12219;BME280;6172;42.646;23.344;2023-03-03T10:22:17;94533.59;;;4.17;100.00
12219;BME280;6172;42.646;23.344;2023-03-03T10:25:00;94528.75;;;4.47;100.00
12219;BME280;6172;42.646;23.344;2023-03-03T10:27:45;94528.47;;;4.73;100.00
12219;BME280;6172;42.646;23.344;2023-03-03T10:30:20;94524.59;;;4.67;100.00
12219;BME280;6172;42.646;23.344;2023-03-03T10:32:56;94524.88;;;4.41;100.00
12219;BME280;6172;42.646;23.344;2023-03-03T10:35:57;94531.50;;;4.57;100.00
12219;BME280;6172;42.646;23.344;2023-03-03T10:38:41;94524.19;;;4.58;100.00
12219;BME280;6172;42.646;23.344;2023-03-03T10:41:26;94521.13;;;4.70;100.00
12219;BME280;6172;42.646;23.344;2023-03-03T10:44:19;94511.09;;;4.63;100.00
12219;BME280;6172;42.646;23.344;2023-03-03T10:47:03;94517.28;;;4.71;100.00
12219;BME280;6172;42.646;23.344;2023-03-03T10:49:45;94521.13;;;4.70;100.00
12219;BME280;6172;42.646;23.344;2023-03-03T10:52:30;94511.22;;;5.02;100.00
12219;BME280;6172;42.646;23.344;2023-03-03T10:55:17;94511.97;;;4.95;100.00
12219;BME280;6172;42.646;23.344;2023-03-03T10:57:57;94502.75;;;5.10;100.00
12219;BME280;6172;42.646;23.344;2023-03-03T11:00:38;94505.44;;;5.10;100.00
12219;BME280;6172;42.646;23.344;2023-03-03T11:06:42;94508.16;;;5.24;100.00
12219;BME280;6172;42.646;23.344;2023-03-03T11:09:25;94502.75;;;5.14;100.00
12219;BME280;6172;42.646;23.344;2023-03-03T11:12:05;94489.63;;;5.23;100.00
12219;BME280;6172;42.646;23.344;2023-03-03T11:14:43;94496.56;;;5.10;100.00
12219;BME280;6172;42.646;23.344;2023-03-03T11:17:16;94486.91;;;4.95;100.00
12219;BME280;6172;42.646;23.344;2023-03-03T11:20:02;94484.56;;;4.90;100.00
12219;BME280;6172;42.646;23.344;2023-03-03T11:22:39;94488.03;;;4.83;100.00
12219;BME280;6172;42.646;23.344;2023-03-03T11:25:25;94488.81;;;4.91;100.00
12219;BME280;6172;42.646;23.344;2023-03-03T11:28:03;94476.44;;;4.76;100.00
12219;BME280;6172;42.646;23.344;2023-03-03T11:30:45;94488.75;;;4.77;100.00
12219;BME280;6172;42.646;23.344;2023-03-03T11:33:21;94486.31;;;4.44;100.00
12219;BME280;6172;42.646;23.344;2023-03-03T11:35:54;94491.41;;;4.63;100.00
12219;BME280;6172;42.646;23.344;2023-03-03T11:38:44;94488.66;;;4.49;100.00
12219;BME280;6172;42.646;23.344;2023-03-03T11:41:22;94487.91;;;4.52;100.00
12219;BME280;6172;42.646;23.344;2023-03-03T11:43:58;94489.81;;;4.44;100.00
12219;BME280;6172;42.646;23.344;2023-03-03T11:46:48;94486.38;;;4.51;100.00
12219;BME280;6172;42.646;23.344;2023-03-03T11:49:21;94482.13;;;4.57;100.00
12219;BME280;6172;42.646;23.344;2023-03-03T11:51:59;94471.28;;;4.39;100.00
12219;BME280;6172;42.646;23.344;2023-03-03T11:54:33;94480.94;;;4.40;100.00
12219;BME280;6172;42.646;23.344;2023-03-03T11:57:15;94476.72;;;4.46;100.00
12219;BME280;6172;42.646;23.344;2023-03-03T11:59:52;94483.63;;;4.44;100.00
12219;BME280;6172;42.646;23.344;2023-03-03T12:02:44;94475.59;;;4.54;100.00
12219;BME280;6172;42.646;23.344;2023-03-03T12:05:26;94475.22;;;4.63;100.00
12219;BME280;6172;42.646;23.344;2023-03-03T12:08:03;94478.31;;;4.58;100.00
12219;BME280;6172;42.646;23.344;2023-03-03T12:10:40;94479.09;;;4.65;100.00
12219;BME280;6172;42.646;23.344;2023-03-03T12:13:20;94477.97;;;4.77;100.00
12219;BME280;6172;42.646;23.344;2023-03-03T12:15:53;94482.56;;;4.62;100.00
12219;BME280;6172;42.646;23.344;2023-03-03T12:21:33;94472.94;;;4.72;100.00
12219;BME280;6172;42.646;23.344;2023-03-03T12:24:16;94478.34;;;4.72;100.00
12219;BME280;6172;42.646;23.344;2023-03-03T12:26:53;94475.69;;;4.86;100.00
12219;BME280;6172;42.646;23.344;2023-03-03T12:29:28;94481.84;;;4.90;100.00
12219;BME280;6172;42.646;23.344;2023-03-03T12:32:06;94480.72;;;4.94;100.00
12219;BME280;6172;42.646;23.344;2023-03-03T12:34:47;94477.59;;;4.85;100.00
12219;BME280;6172;42.646;23.344;2023-03-03T12:37:40;94485.75;;;5.03;100.00
12219;BME280;6172;42.646;23.344;2023-03-03T12:40:18;94486.88;;;4.88;100.00
12219;BME280;6172;42.646;23.344;2023-03-03T12:42:57;94481.03;;;4.75;100.00
12219;BME280;6172;42.646;23.344;2023-03-03T12:45:34;94487.25;;;4.83;100.00
12219;BME280;6172;42.646;23.344;2023-03-03T12:48:07;94481.81;;;4.69;100.00
12219;BME280;6172;42.646;23.344;2023-03-03T12:50:40;94478.75;;;4.74;100.00
12219;BME280;6172;42.646;23.344;2023-03-03T12:53:22;94480.28;;;4.75;100.00
12219;BME280;6172;42.646;23.344;2023-03-03T12:55:52;94484.06;;;4.60;100.00
12219;BME280;6172;42.646;23.344;2023-03-03T12:58:32;94480.22;;;4.57;100.00
12219;BME280;6172;42.646;23.344;2023-03-03T13:01:08;94484.88;;;4.60;100.00
12219;BME280;6172;42.646;23.344;2023-03-03T13:03:41;94481.03;;;4.65;100.00
12219;BME280;6172;42.646;23.344;2023-03-03T13:06:21;94478.75;;;4.74;100.00
12219;BME280;6172;42.646;23.344;2023-03-03T13:08:59;94474.84;;;4.61;100.00
12219;BME280;6172;42.646;23.344;2023-03-03T13:11:41;94472.47;;;4.49;100.00
12219;BME280;6172;42.646;23.344;2023-03-03T13:14:22;94470.97;;;4.65;100.00
12219;BME280;6172;42.646;23.344;2023-03-03T13:17:00;94473.28;;;4.60;100.00
12219;BME280;6172;42.646;23.344;2023-03-03T13:19:32;94479.13;;;4.83;100.00
12219;BME280;6172;42.646;23.344;2023-03-03T13:22:08;94473.38;;;4.81;100.00
12219;BME280;6172;42.646;23.344;2023-03-03T13:24:47;94472.97;;;4.79;100.00
12219;BME280;6172;42.646;23.344;2023-03-03T13:27:19;94472.56;;;4.77;100.00
12219;BME280;6172;42.646;23.344;2023-03-03T13:29:55;94478.00;;;4.87;100.00
12219;BME280;6172;42.646;23.344;2023-03-03T13:32:30;94474.56;;;4.94;100.00
12219;BME280;6172;42.646;23.344;2023-03-03T13:35:04;94470.69;;;4.88;100.00
12219;BME280;6172;42.646;23.344;2023-03-03T13:37:35;94471.03;;;4.83;100.00
12219;BME280;6172;42.646;23.344;2023-03-03T13:40:15;94477.59;;;4.85;100.00